sensor_id;sensor_type;location;lat;lon;timestamp;P1;durP1;ratioP1;P2;durP2;ratioP2
7817;SDS011;3954;52.624;9.212;2022-09-09T00:00:42;5.17;;;4.50;;
7817;SDS011;3954;52.624;9.212;2022-09-09T00:03:11;4.50;;;4.10;;
7817;SDS011;3954;52.624;9.212;2022-09-09T00:05:38;4.87;;;4.13;;
7817;SDS011;3954;52.624;9.212;2022-09-09T00:08:11;6.13;;;4.50;;
7817;SDS011;3954;52.624;9.212;2022-09-09T00:10:40;4.83;;;4.43;;
7817;SDS011;3954;52.624;9.212;2022-09-09T00:13:10;4.83;;;4.33;;
7817;SDS011;3954;52.624;9.212;2022-09-09T00:15:45;4.33;;;4.03;;
7817;SDS011;3954;52.624;9.212;2022-09-09T00:18:20;4.17;;;3.87;;
7817;SDS011;3954;52.624;9.212;2022-09-09T00:20:50;5.80;;;4.10;;
7817;SDS011;3954;52.624;9.212;2022-09-09T00:23:19;4.30;;;3.97;;
7817;SDS011;3954;52.624;9.212;2022-09-09T00:25:51;4.00;;;3.70;;
7817;SDS011;3954;52.624;9.212;2022-09-09T00:28:19;4.60;;;4.20;;
7817;SDS011;3954;52.624;9.212;2022-09-09T00:30:47;4.30;;;3.83;;
7817;SDS011;3954;52.624;9.212;2022-09-09T00:33:13;4.70;;;3.60;;
7817;SDS011;3954;52.624;9.212;2022-09-09T00:35:41;5.43;;;4.00;;
7817;SDS011;3954;52.624;9.212;2022-09-09T00:38:10;4.57;;;3.90;;
7817;SDS011;3954;52.624;9.212;2022-09-09T00:40:39;7.37;;;4.10;;
7817;SDS011;3954;52.624;9.212;2022-09-09T00:43:10;4.77;;;4.13;;
7817;SDS011;3954;52.624;9.212;2022-09-09T00:45:52;3.87;;;3.50;;
7817;SDS011;3954;52.624;9.212;2022-09-09T00:48:22;4.10;;;3.67;;
7817;SDS011;3954;52.624;9.212;2022-09-09T00:50:55;3.67;;;3.17;;
7817;SDS011;3954;52.624;9.212;2022-09-09T00:53:27;4.57;;;3.20;;
7817;SDS011;3954;52.624;9.212;2022-09-09T00:55:57;3.80;;;3.50;;
7817;SDS011;3954;52.624;9.212;2022-09-09T00:58:25;4.83;;;3.37;;
7817;SDS011;3954;52.624;9.212;2022-09-09T01:00:55;3.60;;;3.20;;
7817;SDS011;3954;52.624;9.212;2022-09-09T01:03:25;4.57;;;3.47;;
7817;SDS011;3954;52.624;9.212;2022-09-09T01:05:56;5.70;;;3.20;;
7817;SDS011;3954;52.624;9.212;2022-09-09T01:08:42;4.10;;;3.00;;
7817;SDS011;3954;52.624;9.212;2022-09-09T01:11:10;6.60;;;3.23;;
7817;SDS011;3954;52.624;9.212;2022-09-09T01:13:40;3.17;;;2.70;;
7817;SDS011;3954;52.624;9.212;2022-09-09T01:16:10;8.03;;;3.00;;
7817;SDS011;3954;52.624;9.212;2022-09-09T01:18:37;3.47;;;3.00;;
7817;SDS011;3954;52.624;9.212;2022-09-09T01:21:07;2.83;;;2.60;;
7817;SDS011;3954;52.624;9.212;2022-09-09T01:23:41;4.00;;;3.60;;
7817;SDS011;3954;52.624;9.212;2022-09-09T01:28:56;3.23;;;2.50;;
7817;SDS011;3954;52.624;9.212;2022-09-09T01:31:23;4.33;;;3.10;;
7817;SDS011;3954;52.624;9.212;2022-09-09T01:33:52;3.47;;;2.60;;
7817;SDS011;3954;52.624;9.212;2022-09-09T01:36:20;4.03;;;2.87;;
7817;SDS011;3954;52.624;9.212;2022-09-09T01:38:48;2.60;;;2.40;;
7817;SDS011;3954;52.624;9.212;2022-09-09T01:41:14;2.83;;;2.57;;
7817;SDS011;3954;52.624;9.212;2022-09-09T01:43:40;5.00;;;2.77;;
7817;SDS011;3954;52.624;9.212;2022-09-09T01:46:08;6.23;;;2.53;;
7817;SDS011;3954;52.624;9.212;2022-09-09T01:48:34;2.53;;;2.33;;
7817;SDS011;3954;52.624;9.212;2022-09-09T01:51:00;3.80;;;2.30;;
7817;SDS011;3954;52.624;9.212;2022-09-09T01:53:26;2.57;;;2.30;;
7817;SDS011;3954;52.624;9.212;2022-09-09T01:55:55;5.80;;;2.37;;
7817;SDS011;3954;52.624;9.212;2022-09-09T01:58:27;2.10;;;1.90;;
7817;SDS011;3954;52.624;9.212;2022-09-09T02:00:56;3.77;;;2.33;;
7817;SDS011;3954;52.624;9.212;2022-09-09T02:03:28;2.60;;;2.10;;
7817;SDS011;3954;52.624;9.212;2022-09-09T02:05:56;3.77;;;2.37;;
7817;SDS011;3954;52.624;9.212;2022-09-09T02:08:26;5.53;;;2.90;;
7817;SDS011;3954;52.624;9.212;2022-09-09T02:10:55;3.03;;;2.00;;
7817;SDS011;3954;52.624;9.212;2022-09-09T02:13:22;3.93;;;2.20;;
7817;SDS011;3954;52.624;9.212;2022-09-09T02:15:49;4.13;;;2.17;;
7817;SDS011;3954;52.624;9.212;2022-09-09T02:18:19;4.33;;;2.10;;
7817;SDS011;3954;52.624;9.212;2022-09-09T02:20:49;3.23;;;2.10;;
7817;SDS011;3954;52.624;9.212;2022-09-09T02:23:16;3.20;;;2.30;;
7817;SDS011;3954;52.624;9.212;2022-09-09T02:25:43;3.87;;;2.17;;
7817;SDS011;3954;52.624;9.212;2022-09-09T02:28:11;2.43;;;1.70;;
7817;SDS011;3954;52.624;9.212;2022-09-09T02:30:39;3.20;;;2.53;;
7817;SDS011;3954;52.624;9.212;2022-09-09T02:33:06;2.90;;;2.10;;
7817;SDS011;3954;52.624;9.212;2022-09-09T02:35:35;2.60;;;1.97;;
7817;SDS011;3954;52.624;9.212;2022-09-09T02:38:05;3.80;;;2.20;;
7817;SDS011;3954;52.624;9.212;2022-09-09T02:40:32;2.13;;;1.93;;
7817;SDS011;3954;52.624;9.212;2022-09-09T02:42:58;4.00;;;2.03;;
7817;SDS011;3954;52.624;9.212;2022-09-09T02:45:25;2.20;;;2.00;;
7817;SDS011;3954;52.624;9.212;2022-09-09T02:47:55;2.70;;;2.00;;
7817;SDS011;3954;52.624;9.212;2022-09-09T02:50:25;3.83;;;2.20;;
7817;SDS011;3954;52.624;9.212;2022-09-09T02:52:59;4.70;;;2.20;;
7817;SDS011;3954;52.624;9.212;2022-09-09T02:55:29;3.13;;;2.00;;
7817;SDS011;3954;52.624;9.212;2022-09-09T02:57:57;2.00;;;1.80;;
7817;SDS011;3954;52.624;9.212;2022-09-09T03:00:24;4.20;;;1.90;;
7817;SDS011;3954;52.624;9.212;2022-09-09T03:02:50;2.40;;;1.90;;
7817;SDS011;3954;52.624;9.212;2022-09-09T03:05:16;4.20;;;1.93;;
7817;SDS011;3954;52.624;9.212;2022-09-09T03:07:42;3.07;;;2.00;;
7817;SDS011;3954;52.624;9.212;2022-09-09T03:10:08;3.93;;;1.80;;
7817;SDS011;3954;52.624;9.212;2022-09-09T03:12:36;2.10;;;1.90;;
7817;SDS011;3954;52.624;9.212;2022-09-09T03:15:04;2.23;;;1.87;;
7817;SDS011;3954;52.624;9.212;2022-09-09T03:17:30;3.53;;;1.87;;
7817;SDS011;3954;52.624;9.212;2022-09-09T03:19:56;3.77;;;2.10;;
7817;SDS011;3954;52.624;9.212;2022-09-09T03:22:23;3.83;;;2.20;;
7817;SDS011;3954;52.624;9.212;2022-09-09T03:24:50;6.57;;;2.20;;
7817;SDS011;3954;52.624;9.212;2022-09-09T03:27:16;3.43;;;2.10;;
7817;SDS011;3954;52.624;9.212;2022-09-09T03:29:44;2.53;;;2.27;;
7817;SDS011;3954;52.624;9.212;2022-09-09T03:32:10;6.57;;;2.50;;
7817;SDS011;3954;52.624;9.212;2022-09-09T03:34:36;4.40;;;2.20;;
7817;SDS011;3954;52.624;9.212;2022-09-09T03:37:05;2.83;;;2.43;;
7817;SDS011;3954;52.624;9.212;2022-09-09T03:39:31;5.37;;;2.90;;
7817;SDS011;3954;52.624;9.212;2022-09-09T03:41:57;2.30;;;2.10;;
7817;SDS011;3954;52.624;9.212;2022-09-09T03:44:23;4.33;;;2.60;;
7817;SDS011;3954;52.624;9.212;2022-09-09T03:46:50;4.03;;;2.10;;
7817;SDS011;3954;52.624;9.212;2022-09-09T03:49:16;3.30;;;2.20;;
7817;SDS011;3954;52.624;9.212;2022-09-09T03:51:43;2.97;;;2.20;;
7817;SDS011;3954;52.624;9.212;2022-09-09T03:54:09;3.93;;;2.20;;
7817;SDS011;3954;52.624;9.212;2022-09-09T03:56:35;3.63;;;2.30;;
7817;SDS011;3954;52.624;9.212;2022-09-09T03:59:01;6.27;;;2.60;;
7817;SDS011;3954;52.624;9.212;2022-09-09T04:01:27;3.40;;;2.50;;
7817;SDS011;3954;52.624;9.212;2022-09-09T04:03:55;2.50;;;2.20;;
7817;SDS011;3954;52.624;9.212;2022-09-09T04:06:23;3.83;;;2.30;;
7817;SDS011;3954;52.624;9.212;2022-09-09T04:08:49;3.03;;;1.90;;
7817;SDS011;3954;52.624;9.212;2022-09-09T04:11:17;3.63;;;2.30;;
7817;SDS011;3954;52.624;9.212;2022-09-09T04:13:43;5.30;;;2.30;;
7817;SDS011;3954;52.624;9.212;2022-09-09T04:16:10;2.80;;;2.00;;
7817;SDS011;3954;52.624;9.212;2022-09-09T04:18:36;2.30;;;2.10;;
7817;SDS011;3954;52.624;9.212;2022-09-09T04:21:04;2.57;;;2.37;;
7817;SDS011;3954;52.624;9.212;2022-09-09T04:23:31;3.20;;;2.00;;
7817;SDS011;3954;52.624;9.212;2022-09-09T04:25:59;5.90;;;2.57;;
7817;SDS011;3954;52.624;9.212;2022-09-09T04:28:26;3.23;;;2.10;;
7817;SDS011;3954;52.624;9.212;2022-09-09T04:30:53;3.43;;;2.13;;
7817;SDS011;3954;52.624;9.212;2022-09-09T04:33:19;3.33;;;2.10;;
7817;SDS011;3954;52.624;9.212;2022-09-09T04:35:46;3.30;;;2.10;;
7817;SDS011;3954;52.624;9.212;2022-09-09T04:38:14;3.90;;;2.40;;
7817;SDS011;3954;52.624;9.212;2022-09-09T04:40:41;3.67;;;2.30;;
7817;SDS011;3954;52.624;9.212;2022-09-09T04:43:08;2.90;;;2.17;;
7817;SDS011;3954;52.624;9.212;2022-09-09T04:45:34;5.57;;;2.47;;
7817;SDS011;3954;52.624;9.212;2022-09-09T04:48:00;4.90;;;2.50;;
7817;SDS011;3954;52.624;9.212;2022-09-09T04:50:27;3.87;;;2.40;;
7817;SDS011;3954;52.624;9.212;2022-09-09T04:52:53;2.60;;;2.30;;
7817;SDS011;3954;52.624;9.212;2022-09-09T04:55:21;5.03;;;2.37;;
7817;SDS011;3954;52.624;9.212;2022-09-09T04:57:47;4.03;;;2.30;;
7817;SDS011;3954;52.624;9.212;2022-09-09T05:00:14;8.13;;;2.40;;
7817;SDS011;3954;52.624;9.212;2022-09-09T05:02:40;2.90;;;2.37;;
7817;SDS011;3954;52.624;9.212;2022-09-09T05:05:07;2.73;;;2.10;;
7817;SDS011;3954;52.624;9.212;2022-09-09T05:07:33;5.17;;;2.47;;
7817;SDS011;3954;52.624;9.212;2022-09-09T05:09:59;4.90;;;2.10;;
7817;SDS011;3954;52.624;9.212;2022-09-09T05:12:26;3.50;;;2.03;;
7817;SDS011;3954;52.624;9.212;2022-09-09T05:14:59;1.90;;;1.80;;
7817;SDS011;3954;52.624;9.212;2022-09-09T05:17:25;1.80;;;1.70;;
7817;SDS011;3954;52.624;9.212;2022-09-09T05:19:51;2.10;;;1.97;;
7817;SDS011;3954;52.624;9.212;2022-09-09T05:22:18;3.60;;;1.80;;
7817;SDS011;3954;52.624;9.212;2022-09-09T05:24:45;2.90;;;1.90;;
7817;SDS011;3954;52.624;9.212;2022-09-09T05:27:11;3.33;;;2.13;;
7817;SDS011;3954;52.624;9.212;2022-09-09T05:29:38;3.77;;;1.80;;
7817;SDS011;3954;52.624;9.212;2022-09-09T05:32:06;2.73;;;1.60;;
7817;SDS011;3954;52.624;9.212;2022-09-09T05:34:32;2.03;;;1.73;;
7817;SDS011;3954;52.624;9.212;2022-09-09T05:36:58;4.07;;;2.33;;
7817;SDS011;3954;52.624;9.212;2022-09-09T05:39:24;3.10;;;2.00;;
7817;SDS011;3954;52.624;9.212;2022-09-09T05:41:50;3.30;;;2.13;;
7817;SDS011;3954;52.624;9.212;2022-09-09T05:44:16;4.50;;;1.80;;
7817;SDS011;3954;52.624;9.212;2022-09-09T05:46:43;3.80;;;1.80;;
7817;SDS011;3954;52.624;9.212;2022-09-09T05:49:10;2.57;;;1.70;;
7817;SDS011;3954;52.624;9.212;2022-09-09T05:51:35;2.33;;;1.80;;
7817;SDS011;3954;52.624;9.212;2022-09-09T05:54:02;3.10;;;1.93;;
7817;SDS011;3954;52.624;9.212;2022-09-09T05:56:28;2.07;;;1.80;;
7817;SDS011;3954;52.624;9.212;2022-09-09T05:58:55;3.20;;;1.93;;
7817;SDS011;3954;52.624;9.212;2022-09-09T06:01:22;5.53;;;2.20;;
7817;SDS011;3954;52.624;9.212;2022-09-09T06:03:50;3.43;;;2.23;;
7817;SDS011;3954;52.624;9.212;2022-09-09T06:06:18;3.37;;;1.90;;
7817;SDS011;3954;52.624;9.212;2022-09-09T06:08:48;4.37;;;1.83;;
7817;SDS011;3954;52.624;9.212;2022-09-09T06:11:15;3.40;;;2.10;;
7817;SDS011;3954;52.624;9.212;2022-09-09T06:13:42;3.00;;;2.03;;
7817;SDS011;3954;52.624;9.212;2022-09-09T06:16:08;3.37;;;1.90;;
7817;SDS011;3954;52.624;9.212;2022-09-09T06:18:36;2.57;;;1.90;;
7817;SDS011;3954;52.624;9.212;2022-09-09T06:21:04;4.37;;;2.30;;
7817;SDS011;3954;52.624;9.212;2022-09-09T06:23:31;4.50;;;2.40;;
7817;SDS011;3954;52.624;9.212;2022-09-09T06:26:01;3.67;;;2.20;;
7817;SDS011;3954;52.624;9.212;2022-09-09T06:28:27;3.47;;;2.30;;
7817;SDS011;3954;52.624;9.212;2022-09-09T06:30:56;6.53;;;2.07;;
7817;SDS011;3954;52.624;9.212;2022-09-09T06:33:23;4.80;;;2.23;;
7817;SDS011;3954;52.624;9.212;2022-09-09T06:35:50;3.23;;;2.17;;
7817;SDS011;3954;52.624;9.212;2022-09-09T06:38:19;4.53;;;2.20;;
7817;SDS011;3954;52.624;9.212;2022-09-09T06:40:50;4.27;;;2.17;;
7817;SDS011;3954;52.624;9.212;2022-09-09T06:43:16;3.13;;;2.10;;
7817;SDS011;3954;52.624;9.212;2022-09-09T06:45:42;3.17;;;2.30;;
7817;SDS011;3954;52.624;9.212;2022-09-09T06:48:10;3.53;;;2.20;;
7817;SDS011;3954;52.624;9.212;2022-09-09T06:50:35;6.97;;;2.23;;
7817;SDS011;3954;52.624;9.212;2022-09-09T06:53:01;4.37;;;2.10;;
7817;SDS011;3954;52.624;9.212;2022-09-09T06:55:29;3.20;;;2.20;;
7817;SDS011;3954;52.624;9.212;2022-09-09T06:57:55;6.07;;;2.07;;
7817;SDS011;3954;52.624;9.212;2022-09-09T07:00:21;3.90;;;2.27;;
7817;SDS011;3954;52.624;9.212;2022-09-09T07:02:47;6.33;;;2.20;;
7817;SDS011;3954;52.624;9.212;2022-09-09T07:05:15;3.17;;;2.20;;
7817;SDS011;3954;52.624;9.212;2022-09-09T07:07:41;4.97;;;2.20;;
7817;SDS011;3954;52.624;9.212;2022-09-09T07:10:08;3.67;;;2.27;;
7817;SDS011;3954;52.624;9.212;2022-09-09T07:12:35;5.37;;;2.30;;
7817;SDS011;3954;52.624;9.212;2022-09-09T07:15:02;3.07;;;2.17;;
7817;SDS011;3954;52.624;9.212;2022-09-09T07:17:28;4.53;;;2.10;;
7817;SDS011;3954;52.624;9.212;2022-09-09T07:19:54;4.13;;;2.27;;
7817;SDS011;3954;52.624;9.212;2022-09-09T07:22:21;2.67;;;1.90;;
7817;SDS011;3954;52.624;9.212;2022-09-09T07:24:47;2.90;;;1.90;;
7817;SDS011;3954;52.624;9.212;2022-09-09T07:27:14;4.40;;;1.87;;
7817;SDS011;3954;52.624;9.212;2022-09-09T07:29:41;2.80;;;1.70;;
7817;SDS011;3954;52.624;9.212;2022-09-09T07:32:07;2.50;;;1.83;;
7817;SDS011;3954;52.624;9.212;2022-09-09T07:34:33;3.57;;;2.03;;
7817;SDS011;3954;52.624;9.212;2022-09-09T07:37:00;3.03;;;1.90;;
7817;SDS011;3954;52.624;9.212;2022-09-09T07:39:26;5.67;;;2.50;;
7817;SDS011;3954;52.624;9.212;2022-09-09T07:41:52;5.80;;;1.90;;
7817;SDS011;3954;52.624;9.212;2022-09-09T07:44:20;4.00;;;2.20;;
7817;SDS011;3954;52.624;9.212;2022-09-09T07:46:47;3.77;;;2.20;;
7817;SDS011;3954;52.624;9.212;2022-09-09T07:49:14;3.27;;;2.10;;
7817;SDS011;3954;52.624;9.212;2022-09-09T07:51:41;4.40;;;2.17;;
7817;SDS011;3954;52.624;9.212;2022-09-09T07:54:08;2.33;;;2.00;;
7817;SDS011;3954;52.624;9.212;2022-09-09T07:56:34;3.73;;;2.30;;
7817;SDS011;3954;52.624;9.212;2022-09-09T07:59:02;3.57;;;1.90;;
7817;SDS011;3954;52.624;9.212;2022-09-09T08:01:31;2.47;;;1.93;;
7817;SDS011;3954;52.624;9.212;2022-09-09T08:03:59;7.80;;;2.00;;
7817;SDS011;3954;52.624;9.212;2022-09-09T08:06:26;5.10;;;1.87;;
7817;SDS011;3954;52.624;9.212;2022-09-09T08:08:52;3.37;;;1.90;;
7817;SDS011;3954;52.624;9.212;2022-09-09T08:11:20;3.20;;;1.53;;
7817;SDS011;3954;52.624;9.212;2022-09-09T08:13:48;5.43;;;1.73;;
7817;SDS011;3954;52.624;9.212;2022-09-09T08:16:15;3.23;;;1.80;;
7817;SDS011;3954;52.624;9.212;2022-09-09T08:18:41;4.97;;;1.83;;
7817;SDS011;3954;52.624;9.212;2022-09-09T08:21:10;3.60;;;1.73;;
7817;SDS011;3954;52.624;9.212;2022-09-09T08:23:39;3.47;;;1.80;;
7817;SDS011;3954;52.624;9.212;2022-09-09T08:26:06;3.43;;;1.70;;
7817;SDS011;3954;52.624;9.212;2022-09-09T08:28:34;5.37;;;1.83;;
7817;SDS011;3954;52.624;9.212;2022-09-09T08:31:07;3.03;;;1.57;;
7817;SDS011;3954;52.624;9.212;2022-09-09T08:33:33;5.03;;;1.70;;
7817;SDS011;3954;52.624;9.212;2022-09-09T08:36:01;3.80;;;1.73;;
7817;SDS011;3954;52.624;9.212;2022-09-09T08:38:29;4.27;;;1.67;;
7817;SDS011;3954;52.624;9.212;2022-09-09T08:40:56;3.17;;;1.90;;
7817;SDS011;3954;52.624;9.212;2022-09-09T08:43:27;4.27;;;1.70;;
7817;SDS011;3954;52.624;9.212;2022-09-09T08:45:55;4.47;;;1.70;;
7817;SDS011;3954;52.624;9.212;2022-09-09T08:48:28;8.83;;;2.10;;
7817;SDS011;3954;52.624;9.212;2022-09-09T08:51:00;5.83;;;2.10;;
7817;SDS011;3954;52.624;9.212;2022-09-09T08:53:30;4.50;;;1.87;;
7817;SDS011;3954;52.624;9.212;2022-09-09T08:56:01;4.50;;;2.00;;
7817;SDS011;3954;52.624;9.212;2022-09-09T08:58:29;5.63;;;2.00;;
7817;SDS011;3954;52.624;9.212;2022-09-09T09:01:02;6.27;;;2.17;;
7817;SDS011;3954;52.624;9.212;2022-09-09T09:03:38;5.83;;;1.90;;
7817;SDS011;3954;52.624;9.212;2022-09-09T09:06:13;4.27;;;2.10;;
7817;SDS011;3954;52.624;9.212;2022-09-09T09:08:47;3.93;;;2.10;;
7817;SDS011;3954;52.624;9.212;2022-09-09T09:11:16;4.70;;;1.67;;
7817;SDS011;3954;52.624;9.212;2022-09-09T09:13:43;3.80;;;1.73;;
7817;SDS011;3954;52.624;9.212;2022-09-09T09:16:13;3.40;;;1.60;;
7817;SDS011;3954;52.624;9.212;2022-09-09T09:18:40;4.60;;;2.20;;
7817;SDS011;3954;52.624;9.212;2022-09-09T09:21:08;6.70;;;2.00;;
7817;SDS011;3954;52.624;9.212;2022-09-09T09:23:39;5.10;;;1.67;;
7817;SDS011;3954;52.624;9.212;2022-09-09T09:26:10;5.27;;;2.60;;
7817;SDS011;3954;52.624;9.212;2022-09-09T09:28:36;3.70;;;1.90;;
7817;SDS011;3954;52.624;9.212;2022-09-09T09:31:04;4.03;;;1.83;;
7817;SDS011;3954;52.624;9.212;2022-09-09T09:33:31;5.10;;;1.70;;
7817;SDS011;3954;52.624;9.212;2022-09-09T09:35:59;3.73;;;2.00;;
7817;SDS011;3954;52.624;9.212;2022-09-09T09:38:25;3.83;;;1.90;;
7817;SDS011;3954;52.624;9.212;2022-09-09T09:40:53;3.00;;;1.77;;
7817;SDS011;3954;52.624;9.212;2022-09-09T09:43:23;5.67;;;1.80;;
7817;SDS011;3954;52.624;9.212;2022-09-09T09:45:50;4.23;;;1.97;;
7817;SDS011;3954;52.624;9.212;2022-09-09T09:48:16;4.53;;;1.97;;
7817;SDS011;3954;52.624;9.212;2022-09-09T09:50:46;6.50;;;1.90;;
7817;SDS011;3954;52.624;9.212;2022-09-09T09:53:16;3.67;;;1.90;;
7817;SDS011;3954;52.624;9.212;2022-09-09T09:55:46;4.47;;;2.03;;
7817;SDS011;3954;52.624;9.212;2022-09-09T09:58:13;3.10;;;2.03;;
7817;SDS011;3954;52.624;9.212;2022-09-09T10:00:48;3.97;;;1.80;;
7817;SDS011;3954;52.624;9.212;2022-09-09T10:03:19;7.43;;;2.37;;
7817;SDS011;3954;52.624;9.212;2022-09-09T10:05:46;3.30;;;1.80;;
7817;SDS011;3954;52.624;9.212;2022-09-09T10:08:12;5.03;;;1.90;;
7817;SDS011;3954;52.624;9.212;2022-09-09T10:10:46;5.87;;;1.90;;
7817;SDS011;3954;52.624;9.212;2022-09-09T10:13:15;6.37;;;1.97;;
7817;SDS011;3954;52.624;9.212;2022-09-09T10:15:45;4.43;;;1.73;;
7817;SDS011;3954;52.624;9.212;2022-09-09T10:18:30;3.93;;;1.80;;
7817;SDS011;3954;52.624;9.212;2022-09-09T10:21:03;5.50;;;1.80;;
7817;SDS011;3954;52.624;9.212;2022-09-09T10:23:43;3.30;;;1.57;;
7817;SDS011;3954;52.624;9.212;2022-09-09T10:26:14;4.90;;;1.93;;
7817;SDS011;3954;52.624;9.212;2022-09-09T10:29:07;3.53;;;1.60;;
7817;SDS011;3954;52.624;9.212;2022-09-09T10:31:37;3.60;;;1.77;;
7817;SDS011;3954;52.624;9.212;2022-09-09T10:34:12;3.33;;;1.53;;
7817;SDS011;3954;52.624;9.212;2022-09-09T10:36:44;2.63;;;1.70;;
7817;SDS011;3954;52.624;9.212;2022-09-09T10:39:15;5.97;;;1.80;;
7817;SDS011;3954;52.624;9.212;2022-09-09T10:41:44;5.43;;;1.93;;
7817;SDS011;3954;52.624;9.212;2022-09-09T10:44:22;3.83;;;1.77;;
7817;SDS011;3954;52.624;9.212;2022-09-09T10:46:56;5.17;;;1.83;;
7817;SDS011;3954;52.624;9.212;2022-09-09T10:49:30;2.60;;;1.40;;
7817;SDS011;3954;52.624;9.212;2022-09-09T10:52:15;4.70;;;1.70;;
7817;SDS011;3954;52.624;9.212;2022-09-09T10:54:46;4.17;;;1.90;;
7817;SDS011;3954;52.624;9.212;2022-09-09T10:57:17;4.23;;;1.70;;
7817;SDS011;3954;52.624;9.212;2022-09-09T10:59:46;5.07;;;1.90;;
7817;SDS011;3954;52.624;9.212;2022-09-09T11:02:16;4.20;;;1.57;;
7817;SDS011;3954;52.624;9.212;2022-09-09T11:04:47;4.37;;;2.40;;
7817;SDS011;3954;52.624;9.212;2022-09-09T11:07:17;4.30;;;1.70;;
7817;SDS011;3954;52.624;9.212;2022-09-09T11:09:47;6.20;;;2.10;;
7817;SDS011;3954;52.624;9.212;2022-09-09T11:12:17;3.57;;;1.70;;
7817;SDS011;3954;52.624;9.212;2022-09-09T11:14:45;6.13;;;2.13;;
7817;SDS011;3954;52.624;9.212;2022-09-09T11:17:12;3.20;;;1.67;;
7817;SDS011;3954;52.624;9.212;2022-09-09T11:19:40;2.90;;;1.73;;
7817;SDS011;3954;52.624;9.212;2022-09-09T11:22:14;3.77;;;1.80;;
7817;SDS011;3954;52.624;9.212;2022-09-09T11:24:41;2.70;;;1.50;;
7817;SDS011;3954;52.624;9.212;2022-09-09T11:27:10;2.77;;;1.30;;
7817;SDS011;3954;52.624;9.212;2022-09-09T11:29:44;6.13;;;1.50;;
7817;SDS011;3954;52.624;9.212;2022-09-09T11:32:17;4.53;;;1.50;;
7817;SDS011;3954;52.624;9.212;2022-09-09T11:34:49;3.40;;;1.70;;
7817;SDS011;3954;52.624;9.212;2022-09-09T11:37:23;3.60;;;1.87;;
7817;SDS011;3954;52.624;9.212;2022-09-09T11:40:08;4.57;;;1.60;;
7817;SDS011;3954;52.624;9.212;2022-09-09T11:42:34;8.20;;;1.70;;
7817;SDS011;3954;52.624;9.212;2022-09-09T11:45:08;6.30;;;2.00;;
7817;SDS011;3954;52.624;9.212;2022-09-09T11:47:34;3.67;;;1.90;;
7817;SDS011;3954;52.624;9.212;2022-09-09T11:50:07;4.00;;;1.77;;
7817;SDS011;3954;52.624;9.212;2022-09-09T11:52:37;5.80;;;1.73;;
7817;SDS011;3954;52.624;9.212;2022-09-09T11:55:08;2.83;;;1.60;;
7817;SDS011;3954;52.624;9.212;2022-09-09T11:57:35;3.73;;;1.50;;
7817;SDS011;3954;52.624;9.212;2022-09-09T12:00:02;2.20;;;1.60;;
7817;SDS011;3954;52.624;9.212;2022-09-09T12:02:28;2.13;;;1.40;;
7817;SDS011;3954;52.624;9.212;2022-09-09T12:04:57;2.73;;;1.37;;
7817;SDS011;3954;52.624;9.212;2022-09-09T12:07:28;1.77;;;1.47;;
7817;SDS011;3954;52.624;9.212;2022-09-09T12:09:57;3.07;;;1.40;;
7817;SDS011;3954;52.624;9.212;2022-09-09T12:12:28;3.27;;;1.43;;
7817;SDS011;3954;52.624;9.212;2022-09-09T12:14:56;4.00;;;1.73;;
7817;SDS011;3954;52.624;9.212;2022-09-09T12:17:23;3.67;;;1.77;;
7817;SDS011;3954;52.624;9.212;2022-09-09T12:19:59;6.37;;;1.57;;
7817;SDS011;3954;52.624;9.212;2022-09-09T12:22:36;4.57;;;1.40;;
7817;SDS011;3954;52.624;9.212;2022-09-09T12:25:07;5.27;;;1.50;;
7817;SDS011;3954;52.624;9.212;2022-09-09T12:27:34;3.50;;;1.60;;
7817;SDS011;3954;52.624;9.212;2022-09-09T12:30:03;7.63;;;1.93;;
7817;SDS011;3954;52.624;9.212;2022-09-09T12:32:29;3.03;;;1.50;;
7817;SDS011;3954;52.624;9.212;2022-09-09T12:34:56;3.57;;;1.70;;
7817;SDS011;3954;52.624;9.212;2022-09-09T12:37:26;4.33;;;1.50;;
7817;SDS011;3954;52.624;9.212;2022-09-09T12:39:53;4.17;;;1.70;;
7817;SDS011;3954;52.624;9.212;2022-09-09T12:42:22;3.03;;;1.40;;
7817;SDS011;3954;52.624;9.212;2022-09-09T12:44:52;4.17;;;1.60;;
7817;SDS011;3954;52.624;9.212;2022-09-09T12:47:19;2.20;;;1.27;;
7817;SDS011;3954;52.624;9.212;2022-09-09T12:49:46;4.50;;;1.67;;
7817;SDS011;3954;52.624;9.212;2022-09-09T12:52:15;6.47;;;1.87;;
7817;SDS011;3954;52.624;9.212;2022-09-09T12:54:43;3.30;;;1.37;;
7817;SDS011;3954;52.624;9.212;2022-09-09T12:57:11;4.17;;;1.40;;
7817;SDS011;3954;52.624;9.212;2022-09-09T12:59:40;5.10;;;1.47;;
7817;SDS011;3954;52.624;9.212;2022-09-09T13:02:11;3.70;;;1.67;;
7817;SDS011;3954;52.624;9.212;2022-09-09T13:04:42;3.80;;;1.70;;
7817;SDS011;3954;52.624;9.212;2022-09-09T13:07:09;3.47;;;1.57;;
7817;SDS011;3954;52.624;9.212;2022-09-09T13:09:36;3.80;;;1.70;;
7817;SDS011;3954;52.624;9.212;2022-09-09T13:12:02;4.17;;;1.50;;
7817;SDS011;3954;52.624;9.212;2022-09-09T13:14:32;3.03;;;1.00;;
7817;SDS011;3954;52.624;9.212;2022-09-09T13:17:04;2.90;;;1.40;;
7817;SDS011;3954;52.624;9.212;2022-09-09T13:19:32;3.13;;;1.60;;
7817;SDS011;3954;52.624;9.212;2022-09-09T13:21:59;2.87;;;1.50;;
7817;SDS011;3954;52.624;9.212;2022-09-09T13:24:28;4.03;;;1.30;;
7817;SDS011;3954;52.624;9.212;2022-09-09T13:26:55;2.20;;;1.07;;
7817;SDS011;3954;52.624;9.212;2022-09-09T13:29:21;6.67;;;1.63;;
7817;SDS011;3954;52.624;9.212;2022-09-09T13:31:47;3.33;;;1.57;;
7817;SDS011;3954;52.624;9.212;2022-09-09T13:34:25;3.90;;;1.47;;
7817;SDS011;3954;52.624;9.212;2022-09-09T13:36:55;4.20;;;1.60;;
7817;SDS011;3954;52.624;9.212;2022-09-09T13:39:23;1.73;;;1.00;;
7817;SDS011;3954;52.624;9.212;2022-09-09T13:41:49;2.77;;;1.33;;
7817;SDS011;3954;52.624;9.212;2022-09-09T13:44:17;2.93;;;1.40;;
7817;SDS011;3954;52.624;9.212;2022-09-09T13:46:45;2.37;;;1.50;;
7817;SDS011;3954;52.624;9.212;2022-09-09T13:49:19;2.00;;;1.20;;
7817;SDS011;3954;52.624;9.212;2022-09-09T13:51:47;3.10;;;1.20;;
7817;SDS011;3954;52.624;9.212;2022-09-09T13:54:14;2.57;;;1.07;;
7817;SDS011;3954;52.624;9.212;2022-09-09T13:56:41;3.17;;;1.40;;
7817;SDS011;3954;52.624;9.212;2022-09-09T13:59:10;4.27;;;1.20;;
7817;SDS011;3954;52.624;9.212;2022-09-09T14:01:37;2.77;;;1.30;;
7817;SDS011;3954;52.624;9.212;2022-09-09T14:04:03;1.50;;;1.13;;
7817;SDS011;3954;52.624;9.212;2022-09-09T14:06:30;4.67;;;1.43;;
7817;SDS011;3954;52.624;9.212;2022-09-09T14:08:58;5.27;;;1.50;;
7817;SDS011;3954;52.624;9.212;2022-09-09T14:11:24;6.17;;;1.30;;
7817;SDS011;3954;52.624;9.212;2022-09-09T14:13:50;3.07;;;1.30;;
7817;SDS011;3954;52.624;9.212;2022-09-09T14:16:16;2.97;;;1.23;;
7817;SDS011;3954;52.624;9.212;2022-09-09T14:18:42;3.13;;;1.70;;
7817;SDS011;3954;52.624;9.212;2022-09-09T14:21:09;3.03;;;1.30;;
7817;SDS011;3954;52.624;9.212;2022-09-09T14:23:35;3.20;;;1.37;;
7817;SDS011;3954;52.624;9.212;2022-09-09T14:26:04;4.57;;;1.57;;
7817;SDS011;3954;52.624;9.212;2022-09-09T14:28:31;3.13;;;1.20;;
7817;SDS011;3954;52.624;9.212;2022-09-09T14:30:59;3.87;;;1.40;;
7817;SDS011;3954;52.624;9.212;2022-09-09T14:33:25;2.53;;;1.13;;
7817;SDS011;3954;52.624;9.212;2022-09-09T14:35:55;4.37;;;1.40;;
7817;SDS011;3954;52.624;9.212;2022-09-09T14:38:21;3.57;;;1.30;;
7817;SDS011;3954;52.624;9.212;2022-09-09T14:40:47;2.90;;;1.23;;
7817;SDS011;3954;52.624;9.212;2022-09-09T14:43:14;2.83;;;1.30;;
7817;SDS011;3954;52.624;9.212;2022-09-09T14:45:40;1.70;;;1.00;;
7817;SDS011;3954;52.624;9.212;2022-09-09T14:48:06;2.17;;;1.10;;
7817;SDS011;3954;52.624;9.212;2022-09-09T14:50:32;2.63;;;1.50;;
7817;SDS011;3954;52.624;9.212;2022-09-09T14:52:59;3.83;;;1.60;;
7817;SDS011;3954;52.624;9.212;2022-09-09T14:55:25;2.77;;;1.30;;
7817;SDS011;3954;52.624;9.212;2022-09-09T14:57:53;2.73;;;1.00;;
7817;SDS011;3954;52.624;9.212;2022-09-09T15:00:21;2.63;;;1.50;;
7817;SDS011;3954;52.624;9.212;2022-09-09T15:02:47;2.73;;;1.20;;
7817;SDS011;3954;52.624;9.212;2022-09-09T15:05:14;3.43;;;1.30;;
7817;SDS011;3954;52.624;9.212;2022-09-09T15:07:42;2.13;;;1.23;;
7817;SDS011;3954;52.624;9.212;2022-09-09T15:10:08;3.50;;;1.47;;
7817;SDS011;3954;52.624;9.212;2022-09-09T15:12:34;2.90;;;1.13;;
7817;SDS011;3954;52.624;9.212;2022-09-09T15:15:00;2.77;;;1.50;;
7817;SDS011;3954;52.624;9.212;2022-09-09T15:17:28;4.37;;;1.93;;
7817;SDS011;3954;52.624;9.212;2022-09-09T15:19:54;5.07;;;1.57;;
7817;SDS011;3954;52.624;9.212;2022-09-09T15:22:20;2.77;;;1.27;;
7817;SDS011;3954;52.624;9.212;2022-09-09T15:24:47;1.63;;;1.00;;